Timber Creek, Alabama
Current Conditions -  °F | °C
As of 6:53 AM on Thursday 27 Nov 2014 (Local Time) from KBFM Reporting Station
Clear Clear  
Wind Chill: 41°   Ceiling: Unl
Heat Index: 46°   Visibility: 10mi
Dew Point: 36°   Wind: 12mph
Humidity: 68%   Direction: 320°NW
Pressure: 30.37"   Gusts: NA
Location:  30.6968°N, 87.8613°W
Report Text: KBFM 271253Z 32010KT 10SM CLR 08/02 A3037 RMK AO2 SLP282 T00780022
Loading
Personal Weather Stations






























Interactive Weather Map New forecast layout! Learn more

10-Day Weather Forecast

Advertisements
Track Severe Weather on mobile